createdAt,value
2023-02-11T00:01:54.036Z,73.57
2023-02-11T00:04:39.539Z,66.38
2023-02-11T00:07:24.898Z,67.47
2023-02-11T00:10:10.497Z,76.93
2023-02-11T00:12:56.280Z,74.82
2023-02-11T00:15:41.798Z,71.10
2023-02-11T00:18:28.054Z,73.72
2023-02-11T00:21:15.697Z,73.22
2023-02-11T00:24:02.189Z,65.75
2023-02-11T00:26:47.833Z,69.57
2023-02-11T00:29:32.987Z,69.65
2023-02-11T00:32:18.567Z,70.75
2023-02-11T00:35:03.735Z,67.65
2023-02-11T00:37:53.727Z,74.68
2023-02-11T00:40:38.860Z,69.70
2023-02-11T00:43:23.919Z,65.28
2023-02-11T00:46:09.921Z,60.47
2023-02-11T00:48:57.693Z,69.32
2023-02-11T00:51:43.112Z,71.97
2023-02-11T00:54:30.006Z,63.22
2023-02-11T00:57:15.436Z,72.68
2023-02-11T01:00:00.963Z,66.82
2023-02-11T01:02:46.279Z,66.18
2023-02-11T01:05:31.938Z,63.63
2023-02-11T01:08:17.272Z,71.25
2023-02-11T01:11:06.513Z,67.38
2023-02-11T01:13:51.848Z,65.93
2023-02-11T01:16:37.363Z,63.58
2023-02-11T01:19:23.582Z,64.97
2023-02-11T01:22:09.213Z,62.13
2023-02-11T01:24:54.475Z,62.88
2023-02-11T01:27:40.225Z,66.03
2023-02-11T01:30:25.463Z,60.78
2023-02-11T01:33:10.711Z,61.85
2023-02-11T01:35:56.034Z,62.75
2023-02-11T01:38:41.454Z,65.43
2023-02-11T01:41:26.887Z,59.75
2023-02-11T01:44:26.249Z,65.30
2023-02-11T01:47:11.582Z,59.90
2023-02-11T01:50:01.540Z,59.85
2023-02-11T01:52:48.685Z,65.93
2023-02-11T01:55:52.750Z,63.13
2023-02-11T01:58:41.455Z,60.10
2023-02-11T02:01:28.957Z,64.47
2023-02-11T02:04:18.738Z,59.67
2023-02-11T02:07:10.654Z,61.83
2023-02-11T02:10:03.264Z,64.15
2023-02-11T02:12:48.545Z,59.00
2023-02-11T02:15:39.697Z,63.80
2023-02-11T02:18:48.745Z,61.83
2023-02-11T02:22:25.042Z,66.70
2023-02-11T02:25:31.719Z,60.95
2023-02-11T02:28:39.121Z,64.63
2023-02-11T02:31:53.110Z,64.00
2023-02-11T02:34:49.915Z,59.72
2023-02-11T02:38:17.071Z,65.75
2023-02-11T02:41:13.627Z,68.57
2023-02-11T02:43:59.271Z,62.40
2023-02-11T02:46:44.695Z,64.13
2023-02-11T02:49:29.986Z,67.25
2023-02-11T02:52:51.564Z,63.20
2023-02-11T02:55:57.491Z,64.43
2023-02-11T02:59:02.305Z,65.82
2023-02-11T03:02:13.538Z,64.70
2023-02-11T03:05:01.996Z,63.08
2023-02-11T03:07:47.354Z,62.25
2023-02-11T03:10:36.474Z,65.68
2023-02-11T03:13:29.360Z,67.22
2023-02-11T03:16:22.758Z,76.88
2023-02-11T03:19:22.414Z,66.80
2023-02-11T03:22:16.964Z,66.50
2023-02-11T03:25:02.960Z,65.45
2023-02-11T03:27:57.571Z,65.13
2023-02-11T03:30:53.406Z,67.75
2023-02-11T03:33:53.822Z,69.93
2023-02-11T03:36:46.054Z,70.72
2023-02-11T03:39:37.766Z,62.70
2023-02-11T03:42:28.813Z,68.57
2023-02-11T03:45:17.229Z,71.75
2023-02-11T03:48:12.613Z,71.30
2023-02-11T03:51:01.487Z,73.47
2023-02-11T03:53:48.219Z,73.37
2023-02-11T03:56:48.953Z,70.00
2023-02-11T03:59:53.969Z,74.35
2023-02-11T04:02:40.694Z,68.28
2023-02-11T04:05:26.315Z,67.90
2023-02-11T04:08:11.664Z,67.65
2023-02-11T04:10:57.101Z,70.07
2023-02-11T04:13:42.441Z,66.15
2023-02-11T04:16:28.135Z,70.70
2023-02-11T04:19:13.296Z,78.10
2023-02-11T04:21:59.269Z,72.45
2023-02-11T04:24:44.656Z,62.85
2023-02-11T04:27:30.158Z,74.38
2023-02-11T04:30:15.286Z,76.80
2023-02-11T04:33:00.261Z,73.35
2023-02-11T04:35:45.748Z,71.13
2023-02-11T04:38:31.175Z,78.68
2023-02-11T04:41:16.665Z,69.63
2023-02-11T04:44:02.036Z,77.38
2023-02-11T04:46:47.486Z,79.65
2023-02-11T04:49:33.042Z,76.28
2023-02-11T04:52:18.248Z,73.25
2023-02-11T04:55:04.158Z,73.47
2023-02-11T04:57:49.601Z,79.40
2023-02-11T05:00:35.065Z,79.43
2023-02-11T05:03:20.556Z,72.85
2023-02-11T05:06:06.639Z,81.47
2023-02-11T05:08:51.948Z,76.85
2023-02-11T05:11:39.288Z,86.28
2023-02-11T05:14:24.451Z,78.10
2023-02-11T05:17:09.929Z,88.57
2023-02-11T05:19:55.496Z,88.90
2023-02-11T05:22:40.709Z,79.03
2023-02-11T05:25:26.060Z,76.65
2023-02-11T05:28:11.275Z,79.00
2023-02-11T05:30:56.744Z,82.90
2023-02-11T05:33:42.267Z,74.72
2023-02-11T05:36:27.604Z,85.72
2023-02-11T05:39:12.881Z,84.72
2023-02-11T05:41:58.458Z,83.57
2023-02-11T05:44:43.785Z,79.90
2023-02-11T05:47:29.331Z,87.18
2023-02-11T05:50:14.768Z,81.80
2023-02-11T05:53:00.013Z,84.97
2023-02-11T05:55:45.978Z,91.00
2023-02-11T05:58:32.213Z,83.30
2023-02-11T06:01:17.669Z,93.32
2023-02-11T06:04:02.892Z,86.32
2023-02-11T06:06:48.320Z,84.10
2023-02-11T06:09:33.498Z,90.47
2023-02-11T06:12:18.845Z,90.82
2023-02-11T06:15:05.583Z,88.95
2023-02-11T06:17:50.895Z,96.43
2023-02-11T06:20:37.144Z,88.95
2023-02-11T06:23:22.666Z,90.47
2023-02-11T06:26:10.540Z,86.57
2023-02-11T06:28:55.903Z,88.53
2023-02-11T06:31:41.537Z,91.40
2023-02-11T06:34:26.637Z,89.40
2023-02-11T06:37:11.946Z,91.30
2023-02-11T06:39:57.162Z,92.55
2023-02-11T06:42:42.532Z,88.95
2023-02-11T06:45:27.594Z,101.07
2023-02-11T06:48:12.951Z,89.43
2023-02-11T06:51:02.864Z,86.90
2023-02-11T06:53:48.942Z,100.55
2023-02-11T06:56:34.759Z,93.18
2023-02-11T06:59:20.752Z,93.80
2023-02-11T07:02:06.118Z,96.30
2023-02-11T07:04:51.570Z,93.78
2023-02-11T07:07:37.594Z,92.47
2023-02-11T07:10:22.878Z,91.70
2023-02-11T07:13:08.282Z,89.95
2023-02-11T07:15:53.650Z,95.32
2023-02-11T07:18:38.769Z,94.53
2023-02-11T07:21:24.395Z,95.10
2023-02-11T07:24:11.169Z,103.75
2023-02-11T07:26:56.614Z,97.47
2023-02-11T07:29:43.452Z,104.00
2023-02-11T07:32:28.559Z,91.63
2023-02-11T07:35:14.731Z,94.50
2023-02-11T07:37:59.757Z,92.60
2023-02-11T07:40:45.238Z,88.03
2023-02-11T07:43:31.700Z,93.80
2023-02-11T07:46:20.330Z,97.72
2023-02-11T07:49:05.316Z,102.53
2023-02-11T07:51:51.459Z,91.38
2023-02-11T07:54:36.733Z,89.60
2023-02-11T07:57:22.013Z,92.80
2023-02-11T08:00:07.346Z,95.03
2023-02-11T08:02:59.177Z,99.00
2023-02-11T08:05:44.323Z,87.22
2023-02-11T08:08:29.696Z,96.20
2023-02-11T08:11:20.770Z,89.88
2023-02-11T08:14:06.191Z,82.43
2023-02-11T08:16:51.833Z,86.43
2023-02-11T08:19:37.051Z,94.07
2023-02-11T08:22:22.555Z,89.43
2023-02-11T08:25:08.170Z,86.97
2023-02-11T08:27:53.328Z,94.95
2023-02-11T08:30:38.601Z,95.38
2023-02-11T08:33:23.991Z,87.70
2023-02-11T08:36:21.527Z,88.22
2023-02-11T08:39:19.298Z,90.72
2023-02-11T08:42:05.350Z,85.38
2023-02-11T08:44:50.557Z,90.30
2023-02-11T08:47:37.062Z,91.15
2023-02-11T08:50:22.416Z,96.57
2023-02-11T08:53:08.197Z,90.82
2023-02-11T08:55:55.275Z,80.35
2023-02-11T08:58:40.884Z,78.10
2023-02-11T09:01:29.622Z,86.32
2023-02-11T09:04:15.068Z,97.72
2023-02-11T09:07:00.561Z,87.18
2023-02-11T09:09:45.748Z,82.15
2023-02-11T09:12:31.013Z,89.40
2023-02-11T09:15:16.572Z,87.15
2023-02-11T09:18:02.619Z,81.53
2023-02-11T09:20:47.838Z,76.68
2023-02-11T09:23:34.529Z,74.13
2023-02-11T09:26:24.825Z,84.78
2023-02-11T09:29:10.117Z,79.22
2023-02-11T09:31:55.630Z,75.18
2023-02-11T09:34:40.987Z,76.57
2023-02-11T09:37:26.562Z,83.80
2023-02-11T09:40:14.605Z,78.20
2023-02-11T09:43:05.903Z,79.72
2023-02-11T09:45:54.880Z,85.35
2023-02-11T09:48:42.812Z,80.50
2023-02-11T09:51:45.299Z,79.10
2023-02-11T09:54:35.090Z,81.65
2023-02-11T10:00:48.454Z,71.45
2023-02-11T10:03:39.752Z,80.78
2023-02-11T10:06:37.091Z,77.20
2023-02-11T10:09:40.889Z,79.75
2023-02-11T10:12:58.845Z,76.57
2023-02-11T10:16:13.800Z,84.20
2023-02-11T10:19:09.666Z,79.28
2023-02-11T10:22:40.107Z,79.00
2023-02-11T10:25:26.976Z,78.13
2023-02-11T10:28:18.652Z,77.88
2023-02-11T10:31:11.384Z,79.75
2023-02-11T10:34:07.061Z,75.93
2023-02-11T10:36:52.381Z,76.65
2023-02-11T10:39:39.890Z,75.97
2023-02-11T10:42:25.864Z,74.80
2023-02-11T10:45:19.296Z,76.53
2023-02-11T10:48:09.005Z,68.60
2023-02-11T10:51:08.703Z,65.82
2023-02-11T10:54:08.206Z,72.20
2023-02-11T10:56:59.521Z,69.15
2023-02-11T10:59:45.043Z,69.45
2023-02-11T11:02:34.701Z,71.32
2023-02-11T11:05:24.317Z,78.88
2023-02-11T11:08:09.661Z,75.13
2023-02-11T11:11:05.144Z,71.32
2023-02-11T11:13:53.429Z,76.82
2023-02-11T11:16:38.854Z,78.47
2023-02-11T11:19:25.913Z,73.10
2023-02-11T11:22:22.091Z,72.00
2023-02-11T11:25:22.322Z,64.53
2023-02-11T11:28:25.428Z,64.07
2023-02-11T11:31:28.968Z,65.43
2023-02-11T11:34:32.302Z,66.32
2023-02-11T11:37:43.993Z,63.33
2023-02-11T11:40:34.604Z,60.08
2023-02-11T11:43:23.873Z,66.18
2023-02-11T11:46:12.214Z,65.38
2023-02-11T11:49:23.225Z,70.77
2023-02-11T11:52:18.202Z,65.97
2023-02-11T11:55:33.071Z,67.40
2023-02-11T11:58:21.525Z,57.20
2023-02-11T12:01:10.023Z,58.05
2023-02-11T12:04:14.140Z,58.65
2023-02-11T12:07:26.029Z,63.17
2023-02-11T12:10:14.314Z,58.30
2023-02-11T12:13:23.399Z,51.83
2023-02-11T12:16:33.722Z,54.22
2023-02-11T12:19:46.703Z,54.38
2023-02-11T12:23:09.235Z,47.15
2023-02-11T12:26:17.746Z,48.72
2023-02-11T12:29:36.620Z,50.95
2023-02-11T12:32:43.263Z,51.88
2023-02-11T12:35:37.003Z,55.92
2023-02-11T12:39:02.013Z,45.45
2023-02-11T12:42:09.405Z,47.42
2023-02-11T12:45:13.963Z,48.72
2023-02-11T12:48:05.233Z,44.08
2023-02-11T12:50:56.891Z,44.03
2023-02-11T12:54:11.921Z,43.63
2023-02-11T12:57:11.101Z,53.53
2023-02-11T13:00:02.838Z,40.22
2023-02-11T13:02:54.504Z,42.65
2023-02-11T13:05:54.085Z,39.45
2023-02-11T13:08:49.305Z,39.22
2023-02-11T13:11:43.161Z,41.00
2023-02-11T13:14:35.279Z,35.25
2023-02-11T13:17:29.913Z,39.67
2023-02-11T13:20:30.209Z,40.40
2023-02-11T13:23:31.694Z,46.05
2023-02-11T13:26:24.533Z,43.33
2023-02-11T13:29:30.370Z,40.35
2023-02-11T13:32:16.109Z,45.25
2023-02-11T13:35:02.087Z,39.03
2023-02-11T13:37:48.015Z,39.10
2023-02-11T13:40:39.242Z,34.63
2023-02-11T13:43:30.010Z,39.25
2023-02-11T13:46:15.851Z,37.38
2023-02-11T13:49:01.009Z,41.78
2023-02-11T13:51:47.378Z,42.33
2023-02-11T13:54:38.926Z,42.97
2023-02-11T13:57:32.181Z,41.58
2023-02-11T14:00:32.799Z,37.53
2023-02-11T14:03:46.267Z,40.83
2023-02-11T14:06:50.131Z,38.45
2023-02-11T14:09:38.729Z,35.92
2023-02-11T14:12:31.475Z,34.83
2023-02-11T14:15:20.399Z,36.67
2023-02-11T14:18:37.218Z,36.00
2023-02-11T14:21:26.185Z,34.92
2023-02-11T14:24:11.570Z,37.17
2023-02-11T14:27:28.150Z,34.60
2023-02-11T14:30:26.862Z,35.75
2023-02-11T14:33:40.236Z,38.33
2023-02-11T14:36:43.650Z,35.28
2023-02-11T14:39:40.934Z,37.67
2023-02-11T14:42:29.607Z,39.35
2023-02-11T14:45:21.180Z,35.10
2023-02-11T14:48:16.086Z,34.90
2023-02-11T14:51:19.529Z,33.35
2023-02-11T14:54:18.955Z,31.20
2023-02-11T14:57:16.095Z,28.70
2023-02-11T15:00:19.634Z,29.02
2023-02-11T15:03:05.226Z,28.58
2023-02-11T15:05:55.756Z,31.70
2023-02-11T15:08:52.153Z,29.42
2023-02-11T15:11:43.338Z,27.70
2023-02-11T15:14:32.975Z,30.90
2023-02-11T15:20:13.493Z,27.20
2023-02-11T15:23:01.211Z,27.83
2023-02-11T15:25:52.555Z,27.52
2023-02-11T15:28:38.093Z,26.33
2023-02-11T15:31:25.839Z,27.67
2023-02-11T15:34:14.423Z,28.50
2023-02-11T15:36:59.729Z,28.10
2023-02-11T15:39:45.046Z,29.10
2023-02-11T15:42:40.780Z,28.45
2023-02-11T15:45:36.207Z,23.48
2023-02-11T15:48:26.660Z,27.55
2023-02-11T15:51:28.677Z,31.67
2023-02-11T15:54:24.063Z,23.08
2023-02-11T15:57:10.339Z,25.52
2023-02-11T16:00:04.253Z,28.23
2023-02-11T16:02:57.470Z,25.63
2023-02-11T16:05:42.670Z,26.92
2023-02-11T16:08:29.993Z,24.83
2023-02-11T16:11:26.178Z,19.95
2023-02-11T16:14:29.838Z,21.58
2023-02-11T16:17:17.980Z,55.80
2023-02-11T16:20:03.908Z,26.10
2023-02-11T16:22:49.121Z,24.40
2023-02-11T16:25:37.690Z,26.65
2023-02-11T16:28:23.307Z,21.30
2023-02-11T16:31:09.610Z,19.48
2023-02-11T16:33:54.580Z,23.92
2023-02-11T16:36:40.120Z,18.30
2023-02-11T16:39:25.414Z,21.83
2023-02-11T16:42:13.878Z,17.92
2023-02-11T16:45:00.195Z,17.13
2023-02-11T16:47:46.104Z,23.02
